CheckWX is a tool to help pilots better visualize weather data.  It is not intended as a substitute for an official pre-flight weather briefing.

19:03:52 UTC

KAEX METAR
Alexandria International Airport
Alexandria, Louisiana, USA
Current

11 mins ago

KAEX 191853Z 07008KT 7SM OVC009 07/06 A3003 RMK AO2 RAE34 CIG 005V012 SLP173 P0000 T00720061
Observed
Feb-19 @ 18:53 UTC
Wind
  • 070° at 8 KTS
Visibility
7 SM
Flight Rules
IFR
Cloud Levels
  • Overcast at 900' AGL
Temperature
C / 45°F
Dewpoint
C / 43°F
Humidity
93%
Altimeter
30.03" Hg
Pressure
1017.3 hPa
Current Rain
0.01"
Previous

28 mins ago

KAEX 191836Z 07008KT 4SM BR OVC007 07/06 A3005 RMK AO2 RAE34 CIG 005V011 PRESFR P0000 T00720061
Observed
Feb-19 @ 18:36 UTC
Wind
  • 070° at 8 KTS
Visibility
4 SM
Flight Rules
IFR
Conditions
Mist
Cloud Levels
  • Overcast at 700' AGL
Temperature
C / 45°F
Dewpoint
C / 43°F
Humidity
93%
Altimeter
30.05" Hg
Pressure
1017.62 hPa
Current Rain
0.01"
Previous

1 hour ago

KAEX 191753Z 06008KT 2SM -RA BR OVC007 07/06 A3009 RMK AO2 RAE08B30 CIG 005V010 SLP195 P0001 60005 T00670056 10067 20050 56016
Observed
Feb-19 @ 17:53 UTC
Wind
  • 060° at 8 KTS
Visibility
2 SM
Flight Rules
IFR
Conditions
Light Rain, Mist
Cloud Levels
  • Overcast at 700' AGL
Temperature
C / 45°F
Dewpoint
C / 43°F
Humidity
93%
Altimeter
30.09" Hg
Pressure
1019.5 hPa
Current Rain
0.01"